createdAt,value
2023-05-19T00:00:29.140Z,1.75
2023-05-19T00:03:54.147Z,1.35
2023-05-19T00:06:59.316Z,1.58
2023-05-19T00:10:02.261Z,1.50
2023-05-19T00:13:04.762Z,1.55
2023-05-19T00:16:08.120Z,0.90
2023-05-19T00:19:12.596Z,1.33
2023-05-19T00:22:16.202Z,1.65
2023-05-19T00:25:18.481Z,1.35
2023-05-19T00:28:21.458Z,1.83
2023-05-19T00:31:23.775Z,1.30
2023-05-19T00:34:26.466Z,1.50
2023-05-19T00:37:29.392Z,1.23
2023-05-19T00:40:35.063Z,1.48
2023-05-19T00:43:37.296Z,1.92
2023-05-19T00:46:42.096Z,1.67
2023-05-19T00:52:47.477Z,1.55
2023-05-19T00:55:50.742Z,1.50
2023-05-19T00:58:54.013Z,1.58
2023-05-19T01:01:56.493Z,1.60
2023-05-19T01:05:00.226Z,0.80
2023-05-19T01:08:02.574Z,1.20
2023-05-19T01:11:06.867Z,0.98
2023-05-19T01:14:09.512Z,1.08
2023-05-19T01:17:21.551Z,1.15
2023-05-19T01:20:36.455Z,1.15
2023-05-19T01:24:07.401Z,0.80
2023-05-19T01:27:44.470Z,1.17
2023-05-19T01:30:52.893Z,1.00
2023-05-19T01:33:55.647Z,1.20
2023-05-19T01:37:01.987Z,0.80
2023-05-19T01:40:05.173Z,1.30
2023-05-19T01:43:10.248Z,0.87
2023-05-19T01:46:12.767Z,1.15
2023-05-19T01:49:15.714Z,1.10
2023-05-19T01:52:20.432Z,1.13
2023-05-19T01:55:23.916Z,1.42
2023-05-19T01:58:29.249Z,0.93
2023-05-19T02:01:42.334Z,1.33
2023-05-19T02:04:55.423Z,0.80
2023-05-19T02:08:29.015Z,0.88
2023-05-19T02:11:53.807Z,1.35
2023-05-19T02:15:17.931Z,0.80
2023-05-19T02:18:21.998Z,0.80
2023-05-19T02:21:26.953Z,1.10
2023-05-19T02:24:31.266Z,1.10
2023-05-19T02:27:38.115Z,0.90
2023-05-19T02:30:40.384Z,1.20
2023-05-19T02:33:43.687Z,1.23
2023-05-19T02:36:46.019Z,1.25
2023-05-19T02:39:48.873Z,1.00
2023-05-19T02:42:50.956Z,1.10
2023-05-19T02:45:53.621Z,0.95
2023-05-19T02:48:56.366Z,1.05
2023-05-19T02:51:59.187Z,0.90
2023-05-19T02:55:01.685Z,1.20
2023-05-19T02:58:04.566Z,1.13
2023-05-19T03:01:06.746Z,0.93
2023-05-19T03:04:10.201Z,1.30
2023-05-19T03:07:13.733Z,0.90
2023-05-19T03:10:16.779Z,1.02
2023-05-19T03:13:18.991Z,0.90
2023-05-19T03:16:22.332Z,0.95
2023-05-19T03:19:24.928Z,1.10
2023-05-19T03:22:27.691Z,1.80
2023-05-19T03:25:30.392Z,1.45
2023-05-19T03:28:33.014Z,1.10
2023-05-19T03:31:35.311Z,0.98
2023-05-19T03:34:38.021Z,0.85
2023-05-19T03:37:40.341Z,0.88
2023-05-19T03:40:44.391Z,0.90
2023-05-19T03:43:47.602Z,0.70
2023-05-19T03:46:51.160Z,0.65
2023-05-19T03:49:56.317Z,1.27
2023-05-19T03:53:17.638Z,0.77
2023-05-19T03:56:21.487Z,0.80
2023-05-19T03:59:24.772Z,1.00
2023-05-19T04:02:27.430Z,0.90
2023-05-19T04:05:30.137Z,0.88
2023-05-19T04:08:32.570Z,2.08
2023-05-19T04:11:35.133Z,1.10
2023-05-19T04:14:37.355Z,2.08
2023-05-19T04:17:40.328Z,1.35
2023-05-19T04:20:42.819Z,3.00
2023-05-19T04:23:45.799Z,0.95
2023-05-19T04:26:48.360Z,1.10
2023-05-19T04:29:53.201Z,1.00
2023-05-19T04:32:58.580Z,1.00
2023-05-19T04:36:06.065Z,1.00
2023-05-19T04:39:11.939Z,1.13
2023-05-19T04:42:19.643Z,0.93
2023-05-19T04:45:23.589Z,1.00
2023-05-19T04:48:31.277Z,1.15
2023-05-19T04:51:33.411Z,1.00
2023-05-19T04:54:38.814Z,0.85
2023-05-19T04:57:42.062Z,0.82
2023-05-19T05:00:44.868Z,0.80
2023-05-19T05:03:48.066Z,0.93
2023-05-19T05:06:51.308Z,1.00
2023-05-19T05:09:54.673Z,0.88
2023-05-19T05:12:58.756Z,0.90
2023-05-19T05:16:01.610Z,0.88
2023-05-19T05:19:04.564Z,0.70
2023-05-19T05:22:07.781Z,1.02
2023-05-19T05:25:15.216Z,0.75
2023-05-19T05:28:18.428Z,0.82
2023-05-19T05:34:25.279Z,1.15
2023-05-19T05:37:28.662Z,1.33
2023-05-19T05:40:31.098Z,0.70
2023-05-19T05:43:33.961Z,0.77
2023-05-19T05:46:38.903Z,0.90
2023-05-19T05:49:42.442Z,0.90
2023-05-19T05:52:51.275Z,1.00
2023-05-19T05:55:54.388Z,0.95
2023-05-19T05:59:02.166Z,1.02
2023-05-19T06:02:05.174Z,1.20
2023-05-19T06:05:12.693Z,1.15
2023-05-19T06:08:17.811Z,1.05
2023-05-19T06:11:20.550Z,1.35
2023-05-19T06:14:23.754Z,2.10
2023-05-19T06:17:51.313Z,2.47
2023-05-19T06:20:54.739Z,2.42
2023-05-19T06:23:57.848Z,1.95
2023-05-19T06:27:00.402Z,1.05
2023-05-19T06:30:03.139Z,1.30
2023-05-19T06:33:12.363Z,1.20
2023-05-19T06:36:14.796Z,1.75
2023-05-19T06:39:19.590Z,1.83
2023-05-19T06:42:23.420Z,1.60
2023-05-19T06:45:41.025Z,1.13
2023-05-19T06:48:43.799Z,1.05
2023-05-19T06:51:48.710Z,1.40
2023-05-19T06:54:50.924Z,1.13
2023-05-19T06:57:53.628Z,1.80
2023-05-19T07:00:56.505Z,0.95
2023-05-19T07:04:03.847Z,2.22
2023-05-19T07:07:06.247Z,2.22
2023-05-19T07:10:09.976Z,3.33
2023-05-19T07:13:12.263Z,2.33
2023-05-19T07:16:15.393Z,3.03
2023-05-19T07:19:20.189Z,1.65
2023-05-19T07:22:24.398Z,1.48
2023-05-19T07:25:29.192Z,2.22
2023-05-19T07:28:32.411Z,2.05
2023-05-19T07:31:34.820Z,2.03
2023-05-19T07:34:37.968Z,1.88
2023-05-19T07:37:40.553Z,3.00
2023-05-19T07:40:43.912Z,1.92
2023-05-19T07:43:46.334Z,1.67
2023-05-19T07:46:49.494Z,3.42
2023-05-19T07:49:52.053Z,2.90
2023-05-19T07:52:55.170Z,2.20
2023-05-19T07:55:58.687Z,1.90
2023-05-19T07:59:01.781Z,2.70
2023-05-19T08:02:04.009Z,1.73
2023-05-19T08:05:07.284Z,2.65
2023-05-19T08:08:10.033Z,2.60
2023-05-19T08:11:12.792Z,2.47
2023-05-19T08:14:15.012Z,3.00
2023-05-19T08:17:18.292Z,1.92
2023-05-19T08:20:23.521Z,1.88
2023-05-19T08:23:26.328Z,1.90
2023-05-19T08:26:29.466Z,3.15
2023-05-19T08:29:32.237Z,3.13
2023-05-19T08:32:34.902Z,2.28
2023-05-19T08:35:38.614Z,2.97
2023-05-19T08:38:41.419Z,2.60
2023-05-19T08:41:44.532Z,3.10
2023-05-19T08:44:46.993Z,3.35
2023-05-19T08:47:51.511Z,3.25
2023-05-19T08:51:06.411Z,3.13
2023-05-19T08:54:16.850Z,1.63
2023-05-19T08:57:19.521Z,2.55
2023-05-19T09:00:23.393Z,3.05
2023-05-19T09:03:27.416Z,3.60
2023-05-19T09:09:36.665Z,3.47
2023-05-19T09:12:39.405Z,2.30
2023-05-19T09:15:43.560Z,3.58
2023-05-19T09:22:03.851Z,3.38
2023-05-19T09:25:08.316Z,3.50
2023-05-19T09:28:11.029Z,2.20
2023-05-19T09:31:13.705Z,2.58
2023-05-19T09:34:17.604Z,3.20
2023-05-19T09:37:23.626Z,3.30
2023-05-19T09:40:29.211Z,3.38
2023-05-19T09:43:34.024Z,3.63
2023-05-19T09:46:37.423Z,2.63
2023-05-19T09:49:48.032Z,2.80
2023-05-19T09:52:50.916Z,1.77
2023-05-19T09:55:58.058Z,3.70
2023-05-19T09:59:00.629Z,3.50
2023-05-19T10:02:04.501Z,3.30
2023-05-19T10:05:08.691Z,2.80
2023-05-19T10:11:16.197Z,3.08
2023-05-19T10:14:27.979Z,2.97
2023-05-19T10:17:31.162Z,2.45
2023-05-19T10:20:35.581Z,2.45
2023-05-19T10:23:38.790Z,2.63
2023-05-19T10:26:48.873Z,2.15
2023-05-19T10:29:54.614Z,1.92
2023-05-19T10:33:00.692Z,2.35
2023-05-19T10:36:24.466Z,2.53
2023-05-19T10:39:33.103Z,2.08
2023-05-19T10:42:44.088Z,2.60
2023-05-19T10:45:54.010Z,2.10
2023-05-19T10:48:59.023Z,2.35
2023-05-19T10:52:03.069Z,2.25
2023-05-19T10:55:11.460Z,1.75
2023-05-19T10:58:15.762Z,2.35
2023-05-19T11:01:21.797Z,2.25
2023-05-19T11:04:55.061Z,1.30
2023-05-19T11:08:08.080Z,1.75
2023-05-19T11:11:18.776Z,1.92
2023-05-19T11:14:23.837Z,1.42
2023-05-19T11:17:28.326Z,1.58
2023-05-19T11:20:35.428Z,1.75
2023-05-19T11:23:42.761Z,2.00
2023-05-19T11:26:47.376Z,1.50
2023-05-19T11:29:52.256Z,1.58
2023-05-19T11:32:55.711Z,1.58
2023-05-19T11:35:58.898Z,1.50
2023-05-19T11:39:04.374Z,1.70
2023-05-19T11:42:12.176Z,1.80
2023-05-19T11:45:15.039Z,2.20
2023-05-19T11:48:23.101Z,1.77
2023-05-19T11:51:25.460Z,2.22
2023-05-19T11:54:33.095Z,2.50
2023-05-19T11:57:36.816Z,1.90
2023-05-19T12:00:43.698Z,2.00
2023-05-19T12:03:46.937Z,2.25
2023-05-19T12:06:50.489Z,2.55
2023-05-19T12:09:54.438Z,2.10
2023-05-19T12:12:58.777Z,1.88
2023-05-19T12:16:02.328Z,2.13
2023-05-19T12:19:09.267Z,2.50
2023-05-19T12:22:13.091Z,2.55
2023-05-19T12:25:17.395Z,1.95
2023-05-19T12:28:20.331Z,2.00
2023-05-19T12:31:24.536Z,1.95
2023-05-19T12:34:30.168Z,2.27
2023-05-19T12:37:35.852Z,2.53
2023-05-19T12:40:42.924Z,2.47
2023-05-19T12:43:46.767Z,1.95
2023-05-19T12:46:53.773Z,1.90
2023-05-19T12:50:02.655Z,2.20
2023-05-19T12:53:13.823Z,2.30
2023-05-19T12:56:18.796Z,2.13
2023-05-19T12:59:37.262Z,2.20
2023-05-19T13:03:05.721Z,1.60
2023-05-19T13:06:11.458Z,2.13
2023-05-19T13:09:17.068Z,2.20
2023-05-19T13:12:21.722Z,2.40
2023-05-19T13:15:28.617Z,1.85
2023-05-19T13:18:33.656Z,2.00
2023-05-19T13:21:37.454Z,1.98
2023-05-19T13:24:41.831Z,2.60
2023-05-19T13:27:47.065Z,2.70
2023-05-19T13:33:59.453Z,1.85
2023-05-19T13:37:04.436Z,1.88
2023-05-19T13:40:11.004Z,2.00
2023-05-19T13:43:15.605Z,2.15
2023-05-19T13:46:29.524Z,2.00
2023-05-19T13:49:43.099Z,1.90
2023-05-19T13:52:49.540Z,1.70
2023-05-19T13:55:55.982Z,1.90
2023-05-19T13:59:01.859Z,2.13
2023-05-19T14:02:07.165Z,2.60
2023-05-19T14:05:13.050Z,2.00
2023-05-19T14:08:18.648Z,1.73
2023-05-19T14:11:24.626Z,1.98
2023-05-19T14:14:30.165Z,1.75
2023-05-19T14:17:35.449Z,1.52
2023-05-19T14:20:41.559Z,1.70
2023-05-19T14:23:47.858Z,1.90
2023-05-19T14:26:53.788Z,1.67
2023-05-19T14:30:01.064Z,1.80
2023-05-19T14:33:06.187Z,1.50
2023-05-19T14:36:13.084Z,1.90
2023-05-19T14:39:18.257Z,2.13
2023-05-19T14:42:26.325Z,1.88
2023-05-19T14:45:32.056Z,2.03
2023-05-19T14:48:38.330Z,2.55
2023-05-19T14:51:42.850Z,2.30
2023-05-19T14:54:48.518Z,2.33
2023-05-19T15:04:08.621Z,2.55
2023-05-19T15:07:15.622Z,3.60
2023-05-19T15:10:24.788Z,3.33
2023-05-19T15:13:32.467Z,3.17
2023-05-19T15:16:37.836Z,1.98
2023-05-19T15:19:44.256Z,2.38
2023-05-19T15:22:50.433Z,1.70
2023-05-19T15:25:55.671Z,2.05
2023-05-19T15:29:02.277Z,2.50
2023-05-19T15:32:10.471Z,2.53
2023-05-19T15:35:19.669Z,2.53
2023-05-19T15:38:27.768Z,2.50
2023-05-19T15:41:35.517Z,2.78
2023-05-19T15:48:00.388Z,2.53
2023-05-19T15:51:13.691Z,2.95
2023-05-19T15:54:17.829Z,2.97
2023-05-19T15:57:22.790Z,2.50
2023-05-19T16:03:37.506Z,2.20
2023-05-19T16:06:42.226Z,2.10
2023-05-19T16:09:46.760Z,2.40
2023-05-19T16:12:50.554Z,2.03
2023-05-19T16:15:55.228Z,2.38
2023-05-19T16:22:47.590Z,2.67
2023-05-19T16:26:14.281Z,1.98
2023-05-19T16:29:32.802Z,2.53
2023-05-19T16:32:43.821Z,2.50
2023-05-19T16:35:47.420Z,2.13
2023-05-19T16:38:52.244Z,2.42
2023-05-19T16:41:56.709Z,2.83
2023-05-19T16:45:00.667Z,2.30
2023-05-19T16:48:04.750Z,3.40
2023-05-19T16:51:11.047Z,2.97
2023-05-19T16:54:14.377Z,3.42
2023-05-19T16:57:18.564Z,3.60
2023-05-19T17:00:22.373Z,3.42
2023-05-19T17:03:26.293Z,3.20
2023-05-19T17:06:29.512Z,3.75
2023-05-19T17:09:33.738Z,3.95
2023-05-19T17:12:37.327Z,3.63
2023-05-19T17:15:43.197Z,3.53
2023-05-19T17:18:48.871Z,3.10
2023-05-19T17:21:53.353Z,4.05
2023-05-19T17:25:00.180Z,3.97
2023-05-19T17:28:07.665Z,3.72
2023-05-19T17:31:15.793Z,4.25
2023-05-19T17:34:20.212Z,3.85
2023-05-19T17:37:27.891Z,3.85
2023-05-19T17:40:36.289Z,3.83
2023-05-19T17:43:41.603Z,4.22
2023-05-19T17:46:46.511Z,3.97
2023-05-19T17:49:54.914Z,3.73
2023-05-19T17:53:02.490Z,4.53
2023-05-19T17:56:10.465Z,3.60
2023-05-19T17:59:16.574Z,4.20
2023-05-19T18:02:21.727Z,3.75
2023-05-19T18:05:28.695Z,3.80
2023-05-19T18:08:34.810Z,4.43
2023-05-19T18:11:41.035Z,4.00
2023-05-19T18:17:52.404Z,3.75
2023-05-19T18:20:56.554Z,4.65
2023-05-19T18:24:03.907Z,4.22
2023-05-19T18:27:08.265Z,4.00
2023-05-19T18:30:14.002Z,4.20
2023-05-19T18:33:19.968Z,4.78
2023-05-19T18:36:28.522Z,4.53
2023-05-19T18:39:38.078Z,4.15
2023-05-19T18:42:45.508Z,4.55
2023-05-19T18:45:53.582Z,4.40
2023-05-19T18:49:03.749Z,4.50
2023-05-19T18:52:11.728Z,3.67
2023-05-19T18:55:23.891Z,5.00
2023-05-19T18:58:33.160Z,4.75
2023-05-19T19:01:44.027Z,3.90
2023-05-19T19:04:50.004Z,4.53
2023-05-19T19:07:55.786Z,3.40
2023-05-19T19:11:28.627Z,3.25
2023-05-19T19:14:40.086Z,2.33
2023-05-19T19:17:46.984Z,2.60
2023-05-19T19:20:55.481Z,3.30
2023-05-19T19:24:00.917Z,2.05
2023-05-19T19:27:10.298Z,2.70
2023-05-19T19:30:15.407Z,2.55
2023-05-19T19:33:21.051Z,2.53
2023-05-19T19:36:31.567Z,2.33
2023-05-19T19:39:40.846Z,2.30
2023-05-19T19:42:48.481Z,1.52
2023-05-19T19:46:16.539Z,3.17
2023-05-19T19:49:22.378Z,2.80
2023-05-19T19:52:29.940Z,2.85
2023-05-19T19:55:37.478Z,2.70
2023-05-19T19:59:36.378Z,1.95
2023-05-19T20:03:03.559Z,2.70
2023-05-19T20:06:13.180Z,2.35
2023-05-19T20:09:26.297Z,2.20
2023-05-19T20:15:49.198Z,2.10
2023-05-19T20:18:54.356Z,1.85
2023-05-19T20:22:01.893Z,2.60
2023-05-19T20:25:09.424Z,2.50
2023-05-19T20:28:16.782Z,2.55
2023-05-19T20:31:22.757Z,2.10
2023-05-19T20:34:28.889Z,1.90
2023-05-19T20:37:33.854Z,1.88
2023-05-19T20:40:39.947Z,1.85
2023-05-19T20:43:44.765Z,1.88
2023-05-19T20:46:53.676Z,2.28
2023-05-19T20:49:57.865Z,1.95
2023-05-19T20:53:05.084Z,1.52
2023-05-19T20:59:17.897Z,2.20
2023-05-19T21:02:21.643Z,2.00
2023-05-19T21:05:26.354Z,2.20
2023-05-19T21:08:30.781Z,2.22
2023-05-19T21:11:37.299Z,2.30
2023-05-19T21:14:39.953Z,2.10
2023-05-19T21:17:44.066Z,2.00
2023-05-19T21:20:48.060Z,2.35
2023-05-19T21:23:52.078Z,1.98
2023-05-19T21:26:55.465Z,2.30
2023-05-19T21:29:59.232Z,2.40
2023-05-19T21:33:01.794Z,2.13
2023-05-19T21:36:05.491Z,2.65
2023-05-19T21:39:08.740Z,1.67
2023-05-19T21:42:11.484Z,2.53
2023-05-19T21:45:14.181Z,2.92
2023-05-19T21:48:17.913Z,2.45
2023-05-19T21:51:20.246Z,2.30
2023-05-19T21:54:22.808Z,2.17
2023-05-19T21:57:25.027Z,2.00
2023-05-19T22:00:29.417Z,2.72
2023-05-19T22:03:32.675Z,2.00
2023-05-19T22:06:35.899Z,2.75
2023-05-19T22:09:38.351Z,2.25
2023-05-19T22:12:41.454Z,2.33
2023-05-19T22:15:43.810Z,2.85
2023-05-19T22:18:46.584Z,2.40
2023-05-19T22:21:53.653Z,2.88
2023-05-19T22:25:03.461Z,2.50
2023-05-19T22:28:08.094Z,2.47
2023-05-19T22:31:11.451Z,3.03
2023-05-19T22:34:16.615Z,2.72
2023-05-19T22:37:25.200Z,2.60
2023-05-19T22:40:28.623Z,3.00
2023-05-19T22:43:31.855Z,2.28
2023-05-19T22:46:36.434Z,2.72
2023-05-19T22:49:43.038Z,2.53
2023-05-19T22:52:45.480Z,3.15
2023-05-19T22:55:48.526Z,2.50
2023-05-19T22:58:51.093Z,2.95
2023-05-19T23:01:53.682Z,2.90
2023-05-19T23:04:55.894Z,3.00
2023-05-19T23:07:58.632Z,2.90
2023-05-19T23:11:02.460Z,2.90
2023-05-19T23:14:05.777Z,2.80
2023-05-19T23:17:08.565Z,2.53
2023-05-19T23:20:12.788Z,2.97
2023-05-19T23:23:14.839Z,2.63
2023-05-19T23:26:18.126Z,3.10
2023-05-19T23:29:20.642Z,2.85
2023-05-19T23:32:23.205Z,2.60
2023-05-19T23:35:25.502Z,3.00
2023-05-19T23:38:28.255Z,3.47
2023-05-19T23:41:30.500Z,2.95
2023-05-19T23:44:33.390Z,2.97
2023-05-19T23:47:36.822Z,2.50
2023-05-19T23:50:40.249Z,3.20
2023-05-19T23:53:43.639Z,3.42
2023-05-19T23:56:46.484Z,2.97
2023-05-19T23:59:48.785Z,2.72
